メインページ
METAR-TAF:

METAR-TAF

空港 :

Cheboygan County Airport

Cheboygan, ミシガン州, アメリカ合衆国

緯度: 45-39-13N, 経度: 084-31-09W, 海抜: 195m

現時点の気象観測

当レポートは21分前の06:16(UTC)に作成
無風
気温 1°C
湿度 80%
気圧 1016 hPa
視程: 16.1km
晴天

METAR: KSLH 040616Z AUTO 00000KT 10SM CLR 01/M02 A3001 RMK AO2 T00121020

時間: 02:37 (06:37 UTC)


TAF: 見つかりません

4,000以上の空港の気象観測と天気予報(METAR報とTAF報)

利用可能な観測所は地図上に黄色い丸と赤い丸で示す。

丸の上にカーソルを重ねると観測所名を参照できる。

次にクリックすると気象観測と天気予報を参照できる。

マップの切り替え:黒色「×」印の緑ボタンをクリックして拡大、「-」印の緑ボタンをクリックして縮小、緑色の三角印をクリックして隣りの地図に切り替え


METAR-TAF: